createdAt,value
2022-12-31T00:01:11.232Z,997.1
2022-12-31T00:02:28.318Z,997.1
2022-12-31T00:03:45.226Z,997.1
2022-12-31T00:05:02.235Z,997.1
2022-12-31T00:06:19.210Z,997.1
2022-12-31T00:08:52.175Z,997.1
2022-12-31T00:10:09.317Z,997.1
2022-12-31T00:11:26.192Z,997.1
2022-12-31T00:12:43.199Z,997.1
2022-12-31T00:14:03.301Z,997.1
2022-12-31T00:15:20.217Z,997.1
2022-12-31T00:16:37.283Z,997.1
2022-12-31T00:17:54.212Z,997.1
2022-12-31T00:19:11.389Z,997.1
2022-12-31T00:20:28.207Z,997
2022-12-31T00:21:45.198Z,997
2022-12-31T00:23:02.194Z,997
2022-12-31T00:24:19.277Z,996.9
2022-12-31T00:25:36.215Z,997
2022-12-31T00:26:53.215Z,997
2022-12-31T00:28:10.212Z,997
2022-12-31T00:29:27.264Z,997
2022-12-31T00:30:44.315Z,997
2022-12-31T00:32:01.346Z,997
2022-12-31T00:33:18.251Z,996.9
2022-12-31T00:34:35.364Z,996.9
2022-12-31T00:35:52.258Z,997
2022-12-31T00:37:09.223Z,997
2022-12-31T00:38:26.239Z,996.9
2022-12-31T00:39:43.242Z,997
2022-12-31T00:41:00.286Z,997
2022-12-31T00:42:17.232Z,997
2022-12-31T00:43:34.239Z,997
2022-12-31T00:44:51.624Z,997
2022-12-31T00:46:09.317Z,997
2022-12-31T00:47:26.239Z,997.1
2022-12-31T00:48:43.230Z,997.1
2022-12-31T00:50:00.308Z,997.1
2022-12-31T00:51:17.259Z,997.2
2022-12-31T00:52:34.228Z,997.2
2022-12-31T00:53:51.277Z,997.2
2022-12-31T00:55:08.271Z,997.2
2022-12-31T00:56:25.282Z,997.2
2022-12-31T00:57:42.243Z,997.3
2022-12-31T00:58:59.265Z,997.3
2022-12-31T01:00:16.341Z,997.3
2022-12-31T01:01:33.380Z,997.3
2022-12-31T01:02:50.373Z,997.3
2022-12-31T01:04:07.263Z,997.4
2022-12-31T01:05:24.262Z,997.4
2022-12-31T01:06:41.279Z,997.4
2022-12-31T01:07:58.307Z,997.4
2022-12-31T01:09:15.256Z,997.4
2022-12-31T01:10:32.330Z,997.5
2022-12-31T01:11:49.271Z,997.4
2022-12-31T01:13:06.296Z,997.4
2022-12-31T01:14:23.287Z,997.4
2022-12-31T01:15:40.543Z,997.4
2022-12-31T01:16:57.293Z,997.4
2022-12-31T01:18:14.289Z,997.4
2022-12-31T01:19:31.258Z,997.3
2022-12-31T01:20:48.263Z,997.3
2022-12-31T01:22:05.315Z,997.3
2022-12-31T01:23:22.279Z,997.4
2022-12-31T01:24:39.283Z,997.4
2022-12-31T01:25:56.287Z,997.3
2022-12-31T01:27:13.310Z,997.3
2022-12-31T01:28:30.293Z,997.3
2022-12-31T01:29:47.297Z,997.2
2022-12-31T01:31:04.382Z,997.2
2022-12-31T01:32:21.315Z,997.2
2022-12-31T01:33:38.304Z,997.2
2022-12-31T01:34:55.314Z,997.2
2022-12-31T01:36:12.294Z,997.1
2022-12-31T01:37:29.368Z,997.1
2022-12-31T01:38:46.305Z,997.1
2022-12-31T01:40:03.385Z,997.1
2022-12-31T01:41:20.355Z,997.1
2022-12-31T01:42:37.348Z,997.2
2022-12-31T01:43:54.437Z,997.2
2022-12-31T01:45:11.407Z,997.2
2022-12-31T01:46:28.598Z,997.3
2022-12-31T01:47:45.548Z,997.3
2022-12-31T01:49:02.528Z,997.4
2022-12-31T01:50:19.440Z,997.3
2022-12-31T01:51:36.313Z,997.3
2022-12-31T01:52:53.337Z,997.3
2022-12-31T01:54:10.311Z,997.3
2022-12-31T01:55:27.314Z,997.3
2022-12-31T01:56:44.334Z,997.4
2022-12-31T01:58:01.500Z,997.4
2022-12-31T01:59:18.318Z,997.5
2022-12-31T02:00:35.360Z,997.6
2022-12-31T02:01:52.447Z,997.6
2022-12-31T02:03:09.413Z,997.7
2022-12-31T02:04:26.344Z,997.7
2022-12-31T02:05:43.341Z,997.7
2022-12-31T02:07:00.348Z,997.7
2022-12-31T02:08:17.403Z,997.7
2022-12-31T02:09:34.363Z,997.7
2022-12-31T02:10:51.340Z,997.7
2022-12-31T02:12:08.351Z,997.7
2022-12-31T02:13:25.601Z,997.7
2022-12-31T02:14:42.351Z,997.7
2022-12-31T02:15:59.368Z,997.7
2022-12-31T02:17:16.397Z,997.7
2022-12-31T02:18:33.480Z,997.7
2022-12-31T02:19:50.375Z,997.7
2022-12-31T02:21:07.357Z,997.8
2022-12-31T02:22:24.382Z,997.8
2022-12-31T02:23:41.497Z,997.8
2022-12-31T02:24:58.440Z,997.8
2022-12-31T02:26:15.471Z,997.8
2022-12-31T02:27:32.471Z,997.8
2022-12-31T02:28:49.523Z,997.8
2022-12-31T02:30:06.558Z,997.8
2022-12-31T02:31:23.589Z,997.8
2022-12-31T02:32:40.489Z,997.7
2022-12-31T02:33:57.546Z,997.7
2022-12-31T02:35:14.463Z,997.7
2022-12-31T02:36:31.466Z,997.7
2022-12-31T02:37:48.487Z,997.7
2022-12-31T02:39:05.572Z,997.7
2022-12-31T02:40:22.485Z,997.7
2022-12-31T02:41:39.489Z,997.7
2022-12-31T02:42:56.483Z,997.6
2022-12-31T02:44:13.512Z,997.6
2022-12-31T02:45:30.509Z,997.6
2022-12-31T02:46:47.484Z,997.6
2022-12-31T02:48:04.543Z,997.6
2022-12-31T02:49:21.538Z,997.7
2022-12-31T02:50:38.563Z,997.8
2022-12-31T02:51:55.514Z,997.8
2022-12-31T02:53:12.487Z,997.9
2022-12-31T02:54:29.548Z,997.9
2022-12-31T02:55:46.490Z,997.9
2022-12-31T02:57:03.498Z,998
2022-12-31T02:58:20.530Z,998
2022-12-31T02:59:37.527Z,997.9
2022-12-31T03:00:54.637Z,997.9
2022-12-31T03:02:11.645Z,997.8
2022-12-31T03:03:28.541Z,997.8
2022-12-31T03:04:45.513Z,997.8
2022-12-31T03:06:02.568Z,997.8
2022-12-31T03:07:19.524Z,997.8
2022-12-31T03:08:36.516Z,997.8
2022-12-31T03:09:53.524Z,997.8
2022-12-31T03:11:10.561Z,997.8
2022-12-31T03:12:27.551Z,997.8
2022-12-31T03:13:44.518Z,997.9
2022-12-31T03:15:01.545Z,997.9
2022-12-31T03:16:18.626Z,997.9
2022-12-31T03:17:35.536Z,998
2022-12-31T03:18:52.580Z,998
2022-12-31T03:20:09.670Z,998
2022-12-31T03:21:26.595Z,998
2022-12-31T03:22:43.538Z,998
2022-12-31T03:24:00.549Z,998
2022-12-31T03:25:17.579Z,998.1
2022-12-31T03:26:34.575Z,998.1
2022-12-31T03:27:51.593Z,998
2022-12-31T03:29:08.539Z,998
2022-12-31T03:30:25.639Z,998
2022-12-31T03:31:42.571Z,998
2022-12-31T03:32:59.580Z,998
2022-12-31T03:34:16.571Z,998
2022-12-31T03:35:33.561Z,998.1
2022-12-31T03:36:50.559Z,998.1
2022-12-31T03:38:07.627Z,998.1
2022-12-31T03:39:24.558Z,998.1
2022-12-31T03:40:41.585Z,998.2
2022-12-31T03:41:58.564Z,998.2
2022-12-31T03:43:15.662Z,998.2
2022-12-31T03:44:32.564Z,998.3
2022-12-31T03:45:49.620Z,998.3
2022-12-31T03:47:06.559Z,998.3
2022-12-31T03:48:23.624Z,998.3
2022-12-31T03:49:40.593Z,998.4
2022-12-31T03:50:57.603Z,998.4
2022-12-31T03:52:14.628Z,998.4
2022-12-31T03:53:31.578Z,998.4
2022-12-31T03:54:48.574Z,998.4
2022-12-31T03:56:05.604Z,998.4
2022-12-31T03:57:22.579Z,998.4
2022-12-31T03:58:39.615Z,998.3
2022-12-31T03:59:56.622Z,998.3
2022-12-31T04:01:13.715Z,998.3
2022-12-31T04:02:30.684Z,998.3
2022-12-31T04:03:47.652Z,998.3
2022-12-31T04:05:04.642Z,998.3
2022-12-31T04:06:21.654Z,998.3
2022-12-31T04:07:38.621Z,998.3
2022-12-31T04:08:55.664Z,998.2
2022-12-31T04:10:12.602Z,998.3
2022-12-31T04:11:29.604Z,998.3
2022-12-31T04:12:46.651Z,998.3
2022-12-31T04:14:03.639Z,998.3
2022-12-31T04:15:20.608Z,998.3
2022-12-31T04:16:37.683Z,998.3
2022-12-31T04:17:54.673Z,998.3
2022-12-31T04:19:11.648Z,998.1
2022-12-31T04:20:28.627Z,998.1
2022-12-31T04:21:45.611Z,998.2
2022-12-31T04:23:02.657Z,998.1
2022-12-31T04:24:19.643Z,998.2
2022-12-31T04:25:36.638Z,998.1
2022-12-31T04:26:53.631Z,998.1
2022-12-31T04:28:10.652Z,998
2022-12-31T04:29:27.620Z,998
2022-12-31T04:30:44.702Z,998
2022-12-31T04:32:01.702Z,997.9
2022-12-31T04:33:18.654Z,997.9
2022-12-31T04:34:35.630Z,998
2022-12-31T04:35:52.692Z,997.9
2022-12-31T04:37:09.644Z,997.9
2022-12-31T04:38:26.672Z,997.9
2022-12-31T04:39:43.638Z,997.9
2022-12-31T04:41:00.671Z,997.9
2022-12-31T04:42:17.662Z,997.9
2022-12-31T04:43:34.677Z,997.9
2022-12-31T04:44:51.268Z,997.9
2022-12-31T04:46:07.967Z,997.9
2022-12-31T04:47:25.552Z,997.9
2022-12-31T04:48:42.014Z,998
2022-12-31T04:49:59.699Z,998
2022-12-31T04:51:16.590Z,998.1
2022-12-31T04:52:38.718Z,998.1
2022-12-31T04:53:50.607Z,998.1
2022-12-31T04:55:07.571Z,998.1
2022-12-31T04:56:24.696Z,998.2
2022-12-31T04:57:41.566Z,998.1
2022-12-31T04:58:58.644Z,998.2
2022-12-31T05:00:15.617Z,998.1
2022-12-31T05:01:32.684Z,998.1
2022-12-31T05:02:49.690Z,998
2022-12-31T05:04:06.639Z,998.1
2022-12-31T05:05:23.584Z,998
2022-12-31T05:06:40.632Z,997.9
2022-12-31T05:07:57.598Z,997.9
2022-12-31T05:09:14.615Z,997.9
2022-12-31T05:10:31.715Z,997.9
2022-12-31T05:11:48.636Z,997.9
2022-12-31T05:13:05.668Z,998
2022-12-31T05:14:22.586Z,998
2022-12-31T05:15:39.639Z,998
2022-12-31T05:16:56.642Z,997.9
2022-12-31T05:18:13.645Z,997.9
2022-12-31T05:19:30.747Z,997.9
2022-12-31T05:20:47.637Z,997.9
2022-12-31T05:22:04.624Z,998
2022-12-31T05:23:21.634Z,998
2022-12-31T05:24:38.659Z,998
2022-12-31T05:25:55.642Z,998
2022-12-31T05:27:12.615Z,998
2022-12-31T05:28:29.651Z,998
2022-12-31T05:29:46.678Z,998
2022-12-31T05:31:03.681Z,998
2022-12-31T05:32:20.604Z,998
2022-12-31T05:33:37.607Z,998
2022-12-31T05:34:54.644Z,998
2022-12-31T05:36:11.635Z,998.1
2022-12-31T05:37:28.672Z,998.1
2022-12-31T05:38:45.688Z,998.1
2022-12-31T05:40:02.694Z,998.1
2022-12-31T05:41:19.635Z,998.1
2022-12-31T05:42:36.645Z,998.2
2022-12-31T05:43:53.689Z,998.2
2022-12-31T05:45:10.661Z,998.2
2022-12-31T05:46:27.669Z,998.2
2022-12-31T05:47:44.646Z,998.2
2022-12-31T05:49:01.675Z,998.2
2022-12-31T05:50:18.668Z,998.1
2022-12-31T05:51:35.643Z,998.1
2022-12-31T05:52:52.675Z,998.1
2022-12-31T05:54:09.670Z,998
2022-12-31T05:55:26.660Z,998.1
2022-12-31T05:56:43.672Z,998.1
2022-12-31T05:58:00.695Z,998.1
2022-12-31T05:59:17.711Z,998.1
2022-12-31T06:00:34.691Z,998.2
2022-12-31T06:01:51.676Z,998.2
2022-12-31T06:03:08.721Z,998.3
2022-12-31T06:04:25.731Z,998.3
2022-12-31T06:05:42.689Z,998.3
2022-12-31T06:06:59.670Z,998.3
2022-12-31T06:08:16.777Z,998.3
2022-12-31T06:09:33.695Z,998.3
2022-12-31T06:10:50.687Z,998.3
2022-12-31T06:12:07.668Z,998.2
2022-12-31T06:13:24.709Z,998.2
2022-12-31T06:14:45.507Z,998.2
2022-12-31T06:15:58.783Z,998.2
2022-12-31T06:17:15.691Z,998.2
2022-12-31T06:18:32.693Z,998.2
2022-12-31T06:19:49.744Z,998.3
2022-12-31T06:21:06.741Z,998.3
2022-12-31T06:22:23.678Z,998.3
2022-12-31T06:23:40.731Z,998.3
2022-12-31T06:24:58.377Z,998.3
2022-12-31T06:26:15.693Z,998.3
2022-12-31T06:27:32.690Z,998.3
2022-12-31T06:28:49.699Z,998.4
2022-12-31T06:30:06.875Z,998.4
2022-12-31T06:31:23.837Z,998.4
2022-12-31T06:32:40.763Z,998.4
2022-12-31T06:33:57.698Z,998.4
2022-12-31T06:35:14.789Z,998.4
2022-12-31T06:36:31.738Z,998.4
2022-12-31T06:37:48.753Z,998.4
2022-12-31T06:39:05.847Z,998.4
2022-12-31T06:40:22.813Z,998.4
2022-12-31T06:41:39.746Z,998.4
2022-12-31T06:43:00.030Z,998.5
2022-12-31T06:44:13.754Z,998.5
2022-12-31T06:45:30.763Z,998.5
2022-12-31T06:46:47.769Z,998.5
2022-12-31T06:48:04.908Z,998.5
2022-12-31T06:49:21.746Z,998.5
2022-12-31T06:50:38.736Z,998.5
2022-12-31T06:51:55.773Z,998.5
2022-12-31T06:53:12.721Z,998.5
2022-12-31T06:54:29.863Z,998.5
2022-12-31T06:55:46.736Z,998.4
2022-12-31T06:57:03.986Z,998.4
2022-12-31T06:58:20.754Z,998.4
2022-12-31T06:59:37.898Z,998.3
2022-12-31T07:00:54.787Z,998.3
2022-12-31T07:02:11.839Z,998.3
2022-12-31T07:03:28.776Z,998.3
2022-12-31T07:04:45.788Z,998.3
2022-12-31T07:06:02.792Z,998.4
2022-12-31T07:07:19.764Z,998.4
2022-12-31T07:08:36.755Z,998.4
2022-12-31T07:09:53.825Z,998.4
2022-12-31T07:11:10.757Z,998.4
2022-12-31T07:12:27.757Z,998.5
2022-12-31T07:13:44.743Z,998.5
2022-12-31T07:15:01.984Z,998.6
2022-12-31T07:16:18.818Z,998.6
2022-12-31T07:17:35.823Z,998.5
2022-12-31T07:18:52.786Z,998.6
2022-12-31T07:20:10.010Z,998.7
2022-12-31T07:21:26.784Z,998.7
2022-12-31T07:22:43.779Z,998.7
2022-12-31T07:24:00.793Z,998.7
2022-12-31T07:25:17.840Z,998.6
2022-12-31T07:26:34.795Z,998.6
2022-12-31T07:27:51.910Z,998.7
2022-12-31T07:29:08.816Z,998.7
2022-12-31T07:30:26.001Z,998.7
2022-12-31T07:31:42.895Z,998.7
2022-12-31T07:32:59.970Z,998.7
2022-12-31T07:34:17.006Z,998.7
2022-12-31T07:35:35.347Z,998.7
2022-12-31T07:36:51.064Z,998.7
2022-12-31T07:38:09.098Z,998.7
2022-12-31T07:39:26.918Z,998.7
2022-12-31T07:40:43.982Z,998.7
2022-12-31T07:42:00.962Z,998.7
2022-12-31T07:43:18.043Z,998.7
2022-12-31T07:44:35.926Z,998.6
2022-12-31T07:45:53.033Z,998.7
2022-12-31T07:47:11.070Z,998.7
2022-12-31T07:48:28.846Z,998.7
2022-12-31T07:49:45.850Z,998.7
2022-12-31T07:51:02.894Z,998.7
2022-12-31T07:52:23.513Z,998.7
2022-12-31T07:53:58.112Z,998.8
2022-12-31T07:55:14.834Z,998.8
2022-12-31T07:56:31.997Z,998.7
2022-12-31T07:57:48.843Z,998.7
2022-12-31T07:59:05.823Z,998.7
2022-12-31T08:00:23.011Z,998.7
2022-12-31T08:01:40.012Z,998.7
2022-12-31T08:02:56.876Z,998.7
2022-12-31T08:04:13.911Z,998.8
2022-12-31T08:05:30.853Z,998.8
2022-12-31T08:06:47.911Z,998.8
2022-12-31T08:08:04.844Z,998.9
2022-12-31T08:09:21.898Z,998.9
2022-12-31T08:10:38.852Z,998.9
2022-12-31T08:11:55.878Z,999
2022-12-31T08:13:12.935Z,999
2022-12-31T08:14:29.860Z,999
2022-12-31T08:15:47.111Z,998.9
2022-12-31T08:17:03.990Z,998.9
2022-12-31T08:18:20.939Z,998.8
2022-12-31T08:19:37.865Z,998.9
2022-12-31T08:20:54.887Z,998.9
2022-12-31T08:22:11.923Z,998.9
2022-12-31T08:23:28.861Z,998.9
2022-12-31T08:24:45.982Z,999
2022-12-31T08:26:02.860Z,998.9
2022-12-31T08:27:19.883Z,999
2022-12-31T08:28:36.924Z,998.9
2022-12-31T08:29:53.888Z,998.9
2022-12-31T08:31:11.010Z,998.9
2022-12-31T08:32:27.970Z,998.9
2022-12-31T08:33:44.937Z,998.9
2022-12-31T08:35:01.933Z,999
2022-12-31T08:36:18.904Z,998.9
2022-12-31T08:37:35.924Z,998.9
2022-12-31T08:38:52.984Z,998.9
2022-12-31T08:40:09.961Z,998.9
2022-12-31T08:41:26.902Z,998.9
2022-12-31T08:42:43.920Z,998.9
2022-12-31T08:44:00.957Z,998.9
2022-12-31T08:45:18.387Z,998.8
2022-12-31T08:46:35.926Z,998.8
2022-12-31T08:47:58.073Z,998.8
2022-12-31T08:49:10.930Z,998.9
2022-12-31T08:50:27.928Z,998.8
2022-12-31T08:51:44.932Z,998.8
2022-12-31T08:53:02.080Z,998.8
2022-12-31T08:54:18.917Z,998.8
2022-12-31T08:55:35.917Z,998.8
2022-12-31T08:56:53.024Z,998.8
2022-12-31T08:58:09.973Z,998.8
2022-12-31T08:59:26.923Z,998.8
2022-12-31T09:00:44.037Z,998.7
2022-12-31T09:02:01.136Z,998.7
2022-12-31T09:03:17.925Z,998.7
2022-12-31T09:04:35.002Z,998.7
2022-12-31T09:05:51.937Z,998.7
2022-12-31T09:07:08.952Z,998.6
2022-12-31T09:08:26.044Z,998.6
2022-12-31T09:09:42.968Z,998.6
2022-12-31T09:10:59.952Z,998.6
2022-12-31T09:12:16.925Z,998.6
2022-12-31T09:13:33.994Z,998.6
2022-12-31T09:14:50.940Z,998.6
2022-12-31T09:16:07.964Z,998.6
2022-12-31T09:17:25.032Z,998.5
2022-12-31T09:18:41.993Z,998.6
2022-12-31T09:19:58.956Z,998.6
2022-12-31T09:21:16.051Z,998.6
2022-12-31T09:22:32.984Z,998.6
2022-12-31T09:23:50.022Z,998.7
2022-12-31T09:25:06.962Z,998.7
2022-12-31T09:26:23.965Z,998.7
2022-12-31T09:27:40.988Z,998.7
2022-12-31T09:28:58.022Z,998.7
2022-12-31T09:30:15.217Z,998.8
2022-12-31T09:31:32.033Z,998.8
2022-12-31T09:32:48.983Z,998.7
2022-12-31T09:34:05.990Z,998.8
2022-12-31T09:35:23.020Z,998.7
2022-12-31T09:36:40.051Z,998.7
2022-12-31T09:37:56.964Z,998.7
2022-12-31T09:39:13.963Z,998.7
2022-12-31T09:40:31.041Z,998.7
2022-12-31T09:41:47.969Z,998.7
2022-12-31T09:43:04.986Z,998.7
2022-12-31T09:44:22.001Z,998.8
2022-12-31T09:45:39.140Z,998.8
2022-12-31T09:46:55.990Z,998.8
2022-12-31T09:48:12.975Z,998.8
2022-12-31T09:49:29.983Z,998.8
2022-12-31T09:50:47.241Z,998.8
2022-12-31T09:52:04.077Z,998.8
2022-12-31T09:53:21.021Z,998.8
2022-12-31T09:54:37.993Z,998.8
2022-12-31T09:55:55.059Z,998.8
2022-12-31T09:57:12.040Z,998.7
2022-12-31T09:58:29.001Z,998.7
2022-12-31T09:59:46.047Z,998.7
2022-12-31T10:01:03.252Z,998.7
2022-12-31T10:02:20.113Z,998.7
2022-12-31T10:03:37.050Z,998.7
2022-12-31T10:04:54.032Z,998.7
2022-12-31T10:06:11.031Z,998.7
2022-12-31T10:07:28.115Z,998.8
2022-12-31T10:08:45.030Z,998.8
2022-12-31T10:10:02.168Z,998.9
2022-12-31T10:11:19.021Z,998.8
2022-12-31T10:12:36.072Z,998.8
2022-12-31T10:13:53.009Z,998.8
2022-12-31T10:15:10.064Z,998.7
2022-12-31T10:16:27.116Z,998.7
2022-12-31T10:17:44.064Z,998.6
2022-12-31T10:19:01.058Z,998.6
2022-12-31T10:20:18.141Z,998.6
2022-12-31T10:21:35.059Z,998.6
2022-12-31T10:22:52.033Z,998.6
2022-12-31T10:24:09.077Z,998.6
2022-12-31T10:25:38.894Z,998.5
2022-12-31T10:26:43.041Z,998.5
2022-12-31T10:28:00.089Z,998.5
2022-12-31T10:29:17.075Z,998.5
2022-12-31T10:30:34.176Z,998.5
2022-12-31T10:31:51.048Z,998.4
2022-12-31T10:33:08.086Z,998.4
2022-12-31T10:34:25.087Z,998.4
2022-12-31T10:35:42.072Z,998.4
2022-12-31T10:36:59.073Z,998.4
2022-12-31T10:38:16.053Z,998.4
2022-12-31T10:39:33.095Z,998.5
2022-12-31T10:40:50.071Z,998.5
2022-12-31T10:42:07.066Z,998.5
2022-12-31T10:43:24.086Z,998.5
2022-12-31T10:44:41.124Z,998.5
2022-12-31T10:45:58.229Z,998.5
2022-12-31T10:47:15.138Z,998.5
2022-12-31T10:48:32.075Z,998.5
2022-12-31T10:49:49.081Z,998.5
2022-12-31T10:51:06.100Z,998.5
2022-12-31T10:52:23.105Z,998.5
2022-12-31T10:53:40.083Z,998.5
2022-12-31T10:54:57.092Z,998.4
2022-12-31T10:56:14.225Z,998.5
2022-12-31T10:57:31.105Z,998.5
2022-12-31T10:58:48.104Z,998.5
2022-12-31T11:00:05.258Z,998.5
2022-12-31T11:01:22.272Z,998.4
2022-12-31T11:02:39.189Z,998.4
2022-12-31T11:03:56.101Z,998.5
2022-12-31T11:05:13.130Z,998.5
2022-12-31T11:06:30.197Z,998.6
2022-12-31T11:07:47.141Z,998.5
2022-12-31T11:09:04.112Z,998.5
2022-12-31T11:10:21.101Z,998.4
2022-12-31T11:11:38.111Z,998.4
2022-12-31T11:12:55.146Z,998.4
2022-12-31T11:14:12.179Z,998.5
2022-12-31T11:15:29.137Z,998.5
2022-12-31T11:16:46.223Z,998.5
2022-12-31T11:18:03.861Z,998.4
2022-12-31T11:19:21.142Z,998.4
2022-12-31T11:20:38.135Z,998.4
2022-12-31T11:21:55.129Z,998.4
2022-12-31T11:23:12.217Z,998.3
2022-12-31T11:24:29.144Z,998.4
2022-12-31T11:25:46.608Z,998.4
2022-12-31T11:27:04.178Z,998.3
2022-12-31T11:28:21.161Z,998.4
2022-12-31T11:29:38.170Z,998.4
2022-12-31T11:30:55.244Z,998.3
2022-12-31T11:32:12.216Z,998.3
2022-12-31T11:33:29.174Z,998.3
2022-12-31T11:34:46.166Z,998.2
2022-12-31T11:36:03.264Z,998.2
2022-12-31T11:37:20.150Z,998.3
2022-12-31T11:38:37.190Z,998.3
2022-12-31T11:39:54.175Z,998.3
2022-12-31T11:41:11.191Z,998.3
2022-12-31T11:42:28.255Z,998.3
2022-12-31T11:43:45.202Z,998.2
2022-12-31T11:45:02.367Z,998.2
2022-12-31T11:46:19.260Z,998.2
2022-12-31T11:47:44.690Z,998.2
2022-12-31T11:48:53.185Z,998.2
2022-12-31T11:50:10.238Z,998.2
2022-12-31T11:51:27.199Z,998.2
2022-12-31T11:52:44.236Z,998.2
2022-12-31T11:54:01.182Z,998.1
2022-12-31T11:55:18.193Z,998.1
2022-12-31T11:56:35.176Z,998.1
2022-12-31T11:57:52.329Z,998.1
2022-12-31T11:59:11.103Z,998.1
2022-12-31T12:00:26.390Z,998.2
2022-12-31T12:01:43.266Z,998.2
2022-12-31T12:03:00.389Z,998.1
2022-12-31T12:04:17.270Z,998.1
2022-12-31T12:05:34.233Z,998.2
2022-12-31T12:06:51.200Z,998.2
2022-12-31T12:08:08.281Z,998.2
2022-12-31T12:09:25.257Z,998.1
2022-12-31T12:10:42.215Z,998.1
2022-12-31T12:11:59.213Z,998.1
2022-12-31T12:13:16.245Z,998.1
2022-12-31T12:14:33.215Z,998.1
2022-12-31T12:15:50.299Z,998.3
2022-12-31T12:17:07.249Z,998.2
2022-12-31T12:18:24.271Z,998.2
2022-12-31T12:19:41.206Z,998.2
2022-12-31T12:20:58.270Z,998.2
2022-12-31T12:22:15.296Z,998.1
2022-12-31T12:23:32.263Z,998.2
2022-12-31T12:24:49.225Z,998.2
2022-12-31T12:26:06.258Z,998.2
2022-12-31T12:27:23.263Z,998.3
2022-12-31T12:28:44.061Z,998.3
2022-12-31T12:29:57.256Z,998.3
2022-12-31T12:31:14.346Z,998.3
2022-12-31T12:32:31.279Z,998.3
2022-12-31T12:33:48.259Z,998.4
2022-12-31T12:35:05.254Z,998.5
2022-12-31T12:36:22.279Z,998.5
2022-12-31T12:37:39.271Z,998.4
2022-12-31T12:38:56.276Z,998.4
2022-12-31T12:40:13.285Z,998.4
2022-12-31T12:41:30.288Z,998.4
2022-12-31T12:42:47.272Z,998.3
2022-12-31T12:44:04.292Z,998.3
2022-12-31T12:45:21.261Z,998.3
2022-12-31T12:46:38.396Z,998.4
2022-12-31T12:47:55.258Z,998.3
2022-12-31T12:49:12.345Z,998.4
2022-12-31T12:50:29.269Z,998.4
2022-12-31T12:51:46.307Z,998.4
2022-12-31T12:53:03.281Z,998.4
2022-12-31T12:54:20.315Z,998.4
2022-12-31T12:55:37.288Z,998.4
2022-12-31T12:56:54.347Z,998.5
2022-12-31T12:58:15.714Z,998.5
2022-12-31T12:59:28.291Z,998.4
2022-12-31T13:00:45.323Z,998.3
2022-12-31T13:02:02.595Z,998.4
2022-12-31T13:03:19.528Z,998.4
2022-12-31T13:04:36.319Z,998.4
2022-12-31T13:05:53.307Z,998.4
2022-12-31T13:07:10.431Z,998.4
2022-12-31T13:08:27.472Z,998.4
2022-12-31T13:09:44.311Z,998.4
2022-12-31T13:11:01.371Z,998.4
2022-12-31T13:12:18.336Z,998.4
2022-12-31T13:13:35.293Z,998.4
2022-12-31T13:14:52.315Z,998.4
2022-12-31T13:16:09.375Z,998.4
2022-12-31T13:17:26.382Z,998.5
2022-12-31T13:18:43.337Z,998.5
2022-12-31T13:20:00.338Z,998.6
2022-12-31T13:21:17.332Z,998.6
2022-12-31T13:22:34.350Z,998.6
2022-12-31T13:23:51.352Z,998.6
2022-12-31T13:25:08.329Z,998.6
2022-12-31T13:26:25.316Z,998.6
2022-12-31T13:27:42.349Z,998.7
2022-12-31T13:28:59.404Z,998.7
2022-12-31T13:30:16.393Z,998.7
2022-12-31T13:31:33.376Z,998.7
2022-12-31T13:32:50.367Z,998.7
2022-12-31T13:34:07.402Z,998.7
2022-12-31T13:35:24.381Z,998.7
2022-12-31T13:36:41.340Z,998.7
2022-12-31T13:38:03.336Z,998.8
2022-12-31T13:39:15.390Z,998.7
2022-12-31T13:40:32.510Z,998.8
2022-12-31T13:41:49.350Z,998.8
2022-12-31T13:43:06.374Z,998.8
2022-12-31T13:44:23.409Z,998.8
2022-12-31T13:45:40.403Z,998.8
2022-12-31T13:46:57.406Z,998.7
2022-12-31T13:48:14.443Z,998.8
2022-12-31T13:49:31.445Z,998.8
2022-12-31T13:50:48.415Z,998.8
2022-12-31T13:52:05.448Z,998.8
2022-12-31T13:53:22.365Z,998.8
2022-12-31T13:54:39.388Z,998.8
2022-12-31T13:55:57.006Z,998.8
2022-12-31T13:57:13.440Z,998.8
2022-12-31T13:58:30.457Z,998.8
2022-12-31T13:59:47.393Z,998.8
2022-12-31T14:01:04.508Z,998.8
2022-12-31T14:02:21.558Z,998.7
2022-12-31T14:03:38.393Z,998.7
2022-12-31T14:04:55.415Z,998.7
2022-12-31T14:06:12.860Z,998.7
2022-12-31T14:07:35.523Z,998.8
2022-12-31T14:08:46.403Z,998.8
2022-12-31T14:10:03.694Z,998.8
2022-12-31T14:11:20.428Z,998.8
2022-12-31T14:12:37.669Z,998.7
2022-12-31T14:13:54.424Z,998.8
2022-12-31T14:15:11.407Z,998.7
2022-12-31T14:16:28.502Z,998.8
2022-12-31T14:17:45.388Z,998.7
2022-12-31T14:19:02.528Z,998.8
2022-12-31T14:24:10.440Z,998.8
2022-12-31T14:25:27.435Z,998.8
2022-12-31T14:26:44.396Z,998.8
2022-12-31T14:28:01.427Z,998.8
2022-12-31T14:29:18.417Z,998.8
2022-12-31T14:30:35.612Z,998.8
2022-12-31T14:31:52.467Z,998.8
2022-12-31T14:33:09.417Z,998.8
2022-12-31T14:34:26.581Z,998.8
2022-12-31T14:35:43.468Z,998.8
2022-12-31T14:37:00.435Z,998.8
2022-12-31T14:38:17.450Z,998.9
2022-12-31T14:39:34.505Z,998.9
2022-12-31T14:40:51.517Z,998.9
2022-12-31T14:42:08.447Z,998.8
2022-12-31T14:43:25.446Z,998.9
2022-12-31T14:44:42.434Z,998.9
2022-12-31T14:45:59.602Z,998.9
2022-12-31T14:47:16.452Z,998.9
2022-12-31T14:48:33.513Z,998.9
2022-12-31T14:49:50.452Z,998.9
2022-12-31T14:51:07.494Z,998.9
2022-12-31T14:52:24.499Z,998.9
2022-12-31T14:53:41.449Z,998.9
2022-12-31T14:54:58.470Z,998.9
2022-12-31T14:56:15.455Z,998.9
2022-12-31T14:57:38.967Z,998.9
2022-12-31T14:58:49.528Z,998.9
2022-12-31T15:00:06.527Z,998.9
2022-12-31T15:01:23.536Z,998.9
2022-12-31T15:02:40.663Z,998.9
2022-12-31T15:03:57.517Z,998.8
2022-12-31T15:05:14.463Z,998.9
2022-12-31T15:06:31.605Z,998.9
2022-12-31T15:07:48.505Z,998.9
2022-12-31T15:09:08.101Z,998.8
2022-12-31T15:10:22.719Z,998.8
2022-12-31T15:11:39.484Z,998.9
2022-12-31T15:12:56.499Z,998.9
2022-12-31T15:14:13.528Z,998.9
2022-12-31T15:15:30.515Z,998.9
2022-12-31T15:16:47.532Z,998.9
2022-12-31T15:18:04.487Z,998.9
2022-12-31T15:19:21.511Z,998.9
2022-12-31T15:20:38.536Z,998.9
2022-12-31T15:21:55.484Z,998.9
2022-12-31T15:23:12.484Z,998.9
2022-12-31T15:24:29.555Z,998.9
2022-12-31T15:25:46.570Z,998.9
2022-12-31T15:27:03.506Z,998.9
2022-12-31T15:28:20.564Z,998.9
2022-12-31T15:29:37.518Z,998.9
2022-12-31T15:30:54.628Z,998.9
2022-12-31T15:32:11.535Z,998.9
2022-12-31T15:33:28.774Z,998.9
2022-12-31T15:34:45.691Z,998.9
2022-12-31T15:36:02.641Z,999
2022-12-31T15:37:19.655Z,999
2022-12-31T15:38:36.573Z,999.1
2022-12-31T15:39:53.800Z,999.2
2022-12-31T15:41:10.571Z,999.2
2022-12-31T15:42:37.571Z,999.3
2022-12-31T15:43:44.548Z,999.3
2022-12-31T15:45:01.556Z,999.3
2022-12-31T15:46:18.665Z,999.3
2022-12-31T15:47:35.637Z,999.3
2022-12-31T15:48:54.623Z,999.3
2022-12-31T15:50:09.607Z,999.3
2022-12-31T15:51:26.588Z,999.3
2022-12-31T15:52:43.578Z,999.3
2022-12-31T15:54:00.555Z,999.3
2022-12-31T15:55:17.581Z,999.3
2022-12-31T15:56:34.681Z,999.3
2022-12-31T15:57:51.655Z,999.3
2022-12-31T15:59:08.541Z,999.4
2022-12-31T16:00:25.666Z,999.4
2022-12-31T16:01:42.691Z,999.4
2022-12-31T16:02:59.754Z,999.3
2022-12-31T16:04:16.622Z,999.4
2022-12-31T16:05:33.632Z,999.4
2022-12-31T16:06:51.366Z,999.4
2022-12-31T16:08:07.605Z,999.5
2022-12-31T16:09:24.698Z,999.5
2022-12-31T16:10:41.623Z,999.6
2022-12-31T16:11:58.684Z,999.5
2022-12-31T16:13:15.572Z,999.5
2022-12-31T16:14:35.648Z,999.5
2022-12-31T16:15:52.583Z,999.5
2022-12-31T16:17:09.665Z,999.5
2022-12-31T16:18:26.587Z,999.5
2022-12-31T16:19:43.591Z,999.5
2022-12-31T16:21:00.610Z,999.5
2022-12-31T16:22:17.635Z,999.6
2022-12-31T16:23:38.856Z,999.6
2022-12-31T16:25:19.841Z,999.6
2022-12-31T16:26:08.597Z,999.6
2022-12-31T16:27:25.684Z,999.7
2022-12-31T16:28:42.678Z,999.7
2022-12-31T16:29:59.638Z,999.7
2022-12-31T16:31:16.664Z,999.7
2022-12-31T16:32:33.757Z,999.7
2022-12-31T16:33:50.611Z,999.7
2022-12-31T16:35:15.087Z,999.7
2022-12-31T16:36:24.597Z,999.7
2022-12-31T16:37:41.730Z,999.7
2022-12-31T16:38:58.647Z,999.7
2022-12-31T16:40:15.613Z,999.7
2022-12-31T16:41:32.643Z,999.8
2022-12-31T16:42:49.689Z,999.7